createdAt,value
2023-05-18T00:00:02.607Z,11.60
2023-05-18T00:02:29.634Z,12.93
2023-05-18T00:04:57.049Z,14.13
2023-05-18T00:07:23.948Z,13.52
2023-05-18T00:09:50.909Z,13.38
2023-05-18T00:12:17.853Z,12.60
2023-05-18T00:14:44.773Z,10.35
2023-05-18T00:17:11.722Z,11.65
2023-05-18T00:19:38.588Z,12.15
2023-05-18T00:22:08.039Z,13.25
2023-05-18T00:24:36.959Z,14.27
2023-05-18T00:27:04.174Z,13.70
2023-05-18T00:29:31.114Z,14.80
2023-05-18T00:31:58.030Z,13.40
2023-05-18T00:34:24.928Z,16.23
2023-05-18T00:36:51.916Z,15.38
2023-05-18T00:39:18.885Z,14.30
2023-05-18T00:41:45.721Z,16.23
2023-05-18T00:44:12.813Z,12.82
2023-05-18T00:46:39.787Z,13.77
2023-05-18T00:49:06.748Z,12.75
2023-05-18T00:51:33.907Z,14.87
2023-05-18T00:54:02.595Z,14.70
2023-05-18T00:56:34.342Z,13.90
2023-05-18T00:59:03.412Z,13.85
2023-05-18T01:01:34.738Z,15.40
2023-05-18T01:04:03.613Z,15.80
2023-05-18T01:06:36.203Z,16.48
2023-05-18T01:09:05.533Z,15.60
2023-05-18T01:11:40.854Z,14.90
2023-05-18T01:14:32.146Z,12.25
2023-05-18T01:17:24.398Z,16.87
2023-05-18T01:20:09.293Z,14.38
2023-05-18T01:22:56.575Z,13.77
2023-05-18T01:25:42.560Z,14.90
2023-05-18T01:28:14.593Z,16.62
2023-05-18T01:30:42.600Z,13.73
2023-05-18T01:33:10.869Z,14.55
2023-05-18T01:35:38.369Z,15.55
2023-05-18T01:38:05.275Z,17.25
2023-05-18T01:40:35.626Z,15.82
2023-05-18T01:43:11.870Z,17.70
2023-05-18T01:45:41.628Z,14.30
2023-05-18T01:48:10.245Z,14.80
2023-05-18T01:50:40.998Z,14.85
2023-05-18T01:53:18.729Z,14.90
2023-05-18T01:55:46.433Z,14.15
2023-05-18T01:58:13.766Z,15.25
2023-05-18T02:00:40.807Z,16.05
2023-05-18T02:03:07.958Z,17.80
2023-05-18T02:05:34.895Z,12.82
2023-05-18T02:08:01.771Z,18.35
2023-05-18T02:10:28.724Z,18.60
2023-05-18T02:12:55.830Z,12.18
2023-05-18T02:15:22.818Z,13.70
2023-05-18T02:17:49.829Z,13.43
2023-05-18T02:20:19.732Z,13.35
2023-05-18T02:22:46.624Z,14.00
2023-05-18T02:25:13.540Z,12.98
2023-05-18T02:27:40.729Z,15.93
2023-05-18T02:30:09.051Z,13.82
2023-05-18T02:32:39.613Z,15.98
2023-05-18T02:35:07.855Z,14.48
2023-05-18T02:37:39.928Z,14.18
2023-05-18T02:40:10.609Z,13.68
2023-05-18T02:42:37.507Z,13.95
2023-05-18T02:47:31.748Z,13.68
2023-05-18T02:49:58.700Z,13.77
2023-05-18T02:52:26.101Z,16.98
2023-05-18T02:54:54.894Z,17.08
2023-05-18T02:57:22.431Z,14.27
2023-05-18T02:59:49.345Z,13.75
2023-05-18T03:02:16.734Z,17.45
2023-05-18T03:04:43.850Z,13.55
2023-05-18T03:07:10.760Z,13.07
2023-05-18T03:09:38.141Z,16.10
2023-05-18T03:12:05.456Z,15.48
2023-05-18T03:14:32.354Z,17.35
2023-05-18T03:16:59.338Z,14.32
2023-05-18T03:19:27.598Z,13.55
2023-05-18T03:21:54.459Z,15.20
2023-05-18T03:24:21.583Z,13.25
2023-05-18T03:26:48.584Z,14.73
2023-05-18T03:29:15.509Z,15.95
2023-05-18T03:31:43.648Z,16.10
2023-05-18T03:34:10.551Z,13.90
2023-05-18T03:36:38.550Z,17.40
2023-05-18T03:39:08.695Z,13.82
2023-05-18T03:41:35.689Z,16.10
2023-05-18T03:44:02.796Z,13.88
2023-05-18T03:46:29.738Z,13.30
2023-05-18T03:48:56.904Z,18.60
2023-05-18T03:51:23.882Z,12.57
2023-05-18T03:53:50.780Z,17.67
2023-05-18T03:56:17.662Z,15.38
2023-05-18T03:58:45.796Z,14.15
2023-05-18T04:01:12.738Z,19.00
2023-05-18T04:03:40.886Z,14.70
2023-05-18T04:06:10.467Z,13.45
2023-05-18T04:08:37.641Z,14.90
2023-05-18T04:11:04.978Z,12.85
2023-05-18T04:13:31.897Z,14.73
2023-05-18T04:15:59.143Z,15.88
2023-05-18T04:18:30.461Z,14.48
2023-05-18T04:20:57.384Z,14.10
2023-05-18T04:23:24.296Z,17.27
2023-05-18T04:25:51.179Z,13.70
2023-05-18T04:28:18.120Z,18.40
2023-05-18T04:30:46.264Z,16.30
2023-05-18T04:33:16.394Z,16.17
2023-05-18T04:35:44.767Z,11.77
2023-05-18T04:38:11.657Z,12.77
2023-05-18T04:40:42.808Z,14.87
2023-05-18T04:43:10.436Z,12.15
2023-05-18T04:45:37.383Z,16.08
2023-05-18T04:48:04.343Z,13.95
2023-05-18T04:50:31.336Z,14.80
2023-05-18T04:53:02.333Z,14.95
2023-05-18T04:55:31.302Z,15.80
2023-05-18T04:57:59.501Z,14.90
2023-05-18T05:00:29.250Z,13.80
2023-05-18T05:02:57.159Z,14.07
2023-05-18T05:05:25.506Z,13.32
2023-05-18T05:07:53.751Z,16.37
2023-05-18T05:10:21.266Z,16.08
2023-05-18T05:12:50.291Z,16.08
2023-05-18T05:15:17.977Z,14.85
2023-05-18T05:17:46.409Z,12.65
2023-05-18T05:20:13.394Z,13.77
2023-05-18T05:22:40.328Z,14.07
2023-05-18T05:25:07.662Z,15.65
2023-05-18T05:27:34.689Z,12.98
2023-05-18T05:30:01.663Z,15.25
2023-05-18T05:32:28.636Z,13.07
2023-05-18T05:34:55.648Z,13.13
2023-05-18T05:37:22.516Z,15.43
2023-05-18T05:39:49.381Z,13.95
2023-05-18T05:42:16.532Z,15.60
2023-05-18T05:44:43.403Z,15.25
2023-05-18T05:47:10.373Z,16.87
2023-05-18T05:49:37.375Z,15.10
2023-05-18T05:52:04.543Z,12.57
2023-05-18T05:54:36.109Z,21.05
2023-05-18T05:57:04.099Z,11.63
2023-05-18T05:59:31.001Z,13.43
2023-05-18T06:01:57.936Z,12.63
2023-05-18T06:04:24.845Z,13.50
2023-05-18T06:06:51.897Z,14.52
2023-05-18T06:09:18.847Z,13.35
2023-05-18T06:11:45.827Z,13.68
2023-05-18T06:14:12.845Z,14.60
2023-05-18T06:16:39.858Z,13.02
2023-05-18T06:19:07.734Z,13.27
2023-05-18T06:21:34.958Z,14.10
2023-05-18T06:24:05.393Z,13.77
2023-05-18T06:26:32.838Z,14.57
2023-05-18T06:28:59.703Z,13.98
2023-05-18T06:31:28.267Z,14.98
2023-05-18T06:33:56.419Z,11.68
2023-05-18T06:36:23.352Z,13.98
2023-05-18T06:38:50.288Z,12.50
2023-05-18T06:41:17.196Z,14.18
2023-05-18T06:43:44.073Z,13.43
2023-05-18T06:46:22.172Z,13.25
2023-05-18T06:48:49.081Z,14.30
2023-05-18T06:51:16.494Z,13.45
2023-05-18T06:53:43.679Z,13.00
2023-05-18T06:56:13.191Z,12.57
2023-05-18T06:58:41.656Z,11.60
2023-05-18T07:01:09.172Z,14.75
2023-05-18T07:03:36.140Z,14.00
2023-05-18T07:06:06.340Z,15.35
2023-05-18T07:08:33.677Z,12.18
2023-05-18T07:11:02.689Z,14.30
2023-05-18T07:13:29.743Z,11.73
2023-05-18T07:15:56.753Z,12.02
2023-05-18T07:18:23.824Z,13.60
2023-05-18T07:20:50.809Z,12.43
2023-05-18T07:23:17.728Z,12.82
2023-05-18T07:25:44.666Z,12.80
2023-05-18T07:28:11.555Z,12.13
2023-05-18T07:30:38.480Z,12.98
2023-05-18T07:33:05.375Z,11.88
2023-05-18T07:35:32.787Z,12.02
2023-05-18T07:38:00.017Z,13.45
2023-05-18T07:40:27.104Z,13.93
2023-05-18T07:42:54.073Z,12.85
2023-05-18T07:45:22.080Z,12.50
2023-05-18T07:47:48.987Z,13.98
2023-05-18T07:50:16.030Z,11.57
2023-05-18T07:52:42.947Z,13.82
2023-05-18T07:55:10.009Z,11.20
2023-05-18T07:57:36.968Z,15.85
2023-05-18T08:00:09.189Z,12.27
2023-05-18T08:02:36.417Z,12.80
2023-05-18T08:05:04.186Z,10.27
2023-05-18T08:07:33.160Z,12.65
2023-05-18T08:10:00.064Z,11.85
2023-05-18T08:12:27.065Z,11.75
2023-05-18T08:14:53.953Z,10.23
2023-05-18T08:17:21.270Z,10.52
2023-05-18T08:19:48.666Z,14.75
2023-05-18T08:22:15.967Z,10.00
2023-05-18T08:24:42.952Z,10.35
2023-05-18T08:27:11.457Z,8.75
2023-05-18T08:29:38.485Z,10.48
2023-05-18T08:32:08.376Z,9.02
2023-05-18T08:34:35.440Z,8.38
2023-05-18T08:37:02.512Z,9.23
2023-05-18T08:39:32.038Z,9.45
2023-05-18T08:42:17.113Z,9.45
2023-05-18T08:44:49.858Z,9.50
2023-05-18T08:47:17.725Z,9.48
2023-05-18T08:49:47.017Z,10.18
2023-05-18T08:52:23.403Z,10.40
2023-05-18T08:54:51.749Z,9.73
2023-05-18T08:57:21.323Z,8.23
2023-05-18T08:59:49.576Z,9.45
2023-05-18T09:02:16.878Z,9.27
2023-05-18T09:04:45.088Z,10.60
2023-05-18T09:07:13.518Z,8.32
2023-05-18T09:09:41.197Z,9.20
2023-05-18T09:12:08.871Z,10.52
2023-05-18T09:14:35.801Z,9.52
2023-05-18T09:17:03.424Z,12.20
2023-05-18T09:19:30.433Z,9.48
2023-05-18T09:21:57.312Z,9.32
2023-05-18T09:24:25.008Z,11.18
2023-05-18T09:26:52.109Z,10.38
2023-05-18T09:29:21.067Z,8.57
2023-05-18T09:31:48.426Z,10.77
2023-05-18T09:34:16.126Z,9.20
2023-05-18T09:36:46.715Z,9.35
2023-05-18T09:39:13.709Z,12.37
2023-05-18T09:41:41.542Z,9.73
2023-05-18T09:44:12.713Z,9.63
2023-05-18T09:46:40.615Z,11.02
2023-05-18T09:49:08.181Z,10.90
2023-05-18T09:51:36.428Z,10.35
2023-05-18T09:54:06.405Z,10.07
2023-05-18T09:56:36.611Z,11.12
2023-05-18T09:59:15.145Z,10.55
2023-05-18T10:02:02.822Z,10.15
2023-05-18T10:04:38.694Z,9.07
2023-05-18T10:07:32.130Z,10.38
2023-05-18T10:10:09.165Z,8.95
2023-05-18T10:15:03.629Z,11.15
2023-05-18T10:17:33.483Z,9.77
2023-05-18T10:20:00.981Z,10.05
2023-05-18T10:22:28.022Z,9.13
2023-05-18T10:24:57.013Z,9.23
2023-05-18T10:27:47.101Z,9.60
2023-05-18T10:30:15.041Z,8.48
2023-05-18T10:32:43.258Z,9.25
2023-05-18T10:35:13.742Z,8.50
2023-05-18T10:37:44.215Z,9.27
2023-05-18T10:40:12.449Z,8.48
2023-05-18T10:42:40.208Z,9.05
2023-05-18T10:45:08.120Z,9.82
2023-05-18T10:47:39.703Z,10.05
2023-05-18T10:50:07.473Z,10.63
2023-05-18T10:52:37.368Z,11.60
2023-05-18T10:55:04.670Z,9.60
2023-05-18T10:57:41.468Z,7.35
2023-05-18T11:00:10.418Z,8.18
2023-05-18T11:02:42.696Z,8.70
2023-05-18T11:05:11.107Z,9.18
2023-05-18T11:07:38.606Z,7.57
2023-05-18T11:10:10.977Z,8.80
2023-05-18T11:12:38.757Z,8.88
2023-05-18T11:15:06.330Z,8.85
2023-05-18T11:17:33.358Z,8.57
2023-05-18T11:20:06.670Z,8.95
2023-05-18T11:22:43.331Z,7.43
2023-05-18T11:25:33.203Z,7.50
2023-05-18T11:28:08.287Z,8.98
2023-05-18T11:30:36.717Z,9.95
2023-05-18T11:33:19.149Z,9.20
2023-05-18T11:36:03.829Z,8.25
2023-05-18T11:38:53.091Z,11.23
2023-05-18T11:41:47.074Z,7.70
2023-05-18T11:44:17.204Z,7.32
2023-05-18T11:46:55.592Z,8.48
2023-05-18T11:49:25.538Z,7.93
2023-05-18T11:52:06.969Z,9.10
2023-05-18T11:54:36.521Z,6.25
2023-05-18T11:57:03.601Z,8.48
2023-05-18T11:59:35.026Z,8.90
2023-05-18T12:02:03.105Z,9.40
2023-05-18T12:04:31.715Z,7.95
2023-05-18T12:06:58.782Z,8.02
2023-05-18T12:09:26.292Z,9.27
2023-05-18T12:11:53.280Z,7.32
2023-05-18T12:14:21.230Z,8.43
2023-05-18T12:16:49.290Z,8.75
2023-05-18T12:19:17.402Z,7.37
2023-05-18T12:21:44.342Z,6.87
2023-05-18T12:24:11.459Z,9.20
2023-05-18T12:26:38.489Z,7.65
2023-05-18T12:29:05.625Z,8.82
2023-05-18T12:31:32.615Z,9.15
2023-05-18T12:34:02.676Z,7.85
2023-05-18T12:36:29.721Z,9.10
2023-05-18T12:39:01.657Z,8.27
2023-05-18T12:41:28.859Z,7.63
2023-05-18T12:43:56.021Z,8.77
2023-05-18T12:46:24.157Z,8.57
2023-05-18T12:48:59.163Z,8.73
2023-05-18T12:51:31.161Z,8.95
2023-05-18T12:53:58.436Z,9.45
2023-05-18T12:56:25.539Z,8.93
2023-05-18T12:59:05.556Z,8.75
2023-05-18T13:01:44.071Z,7.53
2023-05-18T13:04:12.109Z,8.25
2023-05-18T13:06:40.174Z,9.02
2023-05-18T13:09:13.975Z,9.02
2023-05-18T13:11:41.389Z,9.68
2023-05-18T13:14:10.778Z,9.00
2023-05-18T13:16:40.178Z,9.05
2023-05-18T13:19:09.544Z,9.27
2023-05-18T13:21:37.108Z,10.43
2023-05-18T13:24:05.158Z,7.68
2023-05-18T13:26:32.072Z,8.95
2023-05-18T13:29:00.492Z,8.40
2023-05-18T13:31:29.686Z,10.07
2023-05-18T13:33:57.439Z,8.55
2023-05-18T13:36:24.490Z,8.63
2023-05-18T13:38:52.488Z,10.55
2023-05-18T13:41:19.605Z,9.95
2023-05-18T13:43:46.539Z,11.02
2023-05-18T13:46:17.579Z,11.20
2023-05-18T13:48:44.573Z,11.23
2023-05-18T13:51:11.505Z,10.43
2023-05-18T13:53:39.465Z,11.10
2023-05-18T13:56:07.817Z,10.00
2023-05-18T13:58:36.222Z,11.25
2023-05-18T14:01:08.178Z,11.70
2023-05-18T14:03:36.813Z,13.45
2023-05-18T14:06:04.157Z,12.13
2023-05-18T14:08:31.490Z,14.18
2023-05-18T14:10:58.430Z,10.27
2023-05-18T14:13:25.784Z,11.45
2023-05-18T14:15:52.991Z,12.80
2023-05-18T14:18:19.888Z,12.75
2023-05-18T14:20:48.582Z,12.68
2023-05-18T14:23:15.650Z,12.98
2023-05-18T14:25:43.833Z,11.55
2023-05-18T14:28:10.842Z,15.18
2023-05-18T14:30:37.723Z,13.73
2023-05-18T14:33:04.665Z,11.88
2023-05-18T14:35:31.627Z,14.13
2023-05-18T14:37:58.549Z,12.43
2023-05-18T14:40:25.640Z,17.27
2023-05-18T14:42:53.890Z,13.90
2023-05-18T14:45:21.021Z,12.05
2023-05-18T14:47:48.240Z,14.57
2023-05-18T14:50:15.325Z,13.10
2023-05-18T14:52:42.295Z,14.10
2023-05-18T14:55:09.662Z,14.23
2023-05-18T14:57:36.655Z,12.93
2023-05-18T15:00:04.180Z,15.02
2023-05-18T15:02:31.318Z,12.75
2023-05-18T15:04:58.369Z,13.77
2023-05-18T15:07:25.330Z,13.60
2023-05-18T15:09:52.486Z,13.50
2023-05-18T15:12:19.879Z,13.32
2023-05-18T15:14:46.804Z,16.10
2023-05-18T15:17:15.219Z,13.98
2023-05-18T15:19:42.386Z,14.63
2023-05-18T15:22:12.053Z,17.60
2023-05-18T15:24:39.314Z,14.15
2023-05-18T15:27:06.607Z,15.38
2023-05-18T15:29:33.673Z,16.00
2023-05-18T15:32:00.634Z,13.23
2023-05-18T15:34:29.700Z,15.10
2023-05-18T15:36:56.581Z,13.85
2023-05-18T15:39:23.545Z,16.33
2023-05-18T15:41:50.467Z,12.65
2023-05-18T15:44:17.444Z,13.15
2023-05-18T15:46:44.359Z,12.23
2023-05-18T15:49:11.321Z,13.52
2023-05-18T15:51:38.326Z,12.55
2023-05-18T15:54:05.300Z,14.65
2023-05-18T15:56:32.297Z,12.93
2023-05-18T15:58:59.353Z,12.90
2023-05-18T16:01:26.264Z,12.60
2023-05-18T16:03:53.345Z,13.73
2023-05-18T16:06:20.453Z,12.45
2023-05-18T16:08:47.403Z,11.65
2023-05-18T16:11:14.388Z,13.35
2023-05-18T16:13:41.399Z,12.05
2023-05-18T16:16:10.482Z,11.32
2023-05-18T16:18:37.698Z,13.05
2023-05-18T16:21:04.721Z,11.32
2023-05-18T16:23:31.611Z,13.05
2023-05-18T16:26:00.018Z,12.32
2023-05-18T16:28:27.102Z,12.02
2023-05-18T16:30:54.070Z,11.23
2023-05-18T16:33:20.955Z,13.10
2023-05-18T16:35:47.863Z,14.75
2023-05-18T16:38:15.184Z,12.52
2023-05-18T16:40:42.040Z,12.75
2023-05-18T16:43:09.307Z,12.50
2023-05-18T16:45:36.339Z,12.68
2023-05-18T16:48:04.026Z,17.50
2023-05-18T16:50:31.984Z,13.52
2023-05-18T16:52:59.224Z,13.20
2023-05-18T16:55:26.764Z,13.27
2023-05-18T16:57:53.698Z,14.82
2023-05-18T17:00:21.189Z,14.68
2023-05-18T17:02:48.425Z,15.98
2023-05-18T17:05:17.434Z,16.42
2023-05-18T17:07:44.401Z,15.25
2023-05-18T17:10:11.482Z,17.90
2023-05-18T17:12:38.670Z,15.57
2023-05-18T17:15:06.081Z,19.20
2023-05-18T17:17:33.117Z,17.52
2023-05-18T17:20:12.645Z,18.05
2023-05-18T17:22:39.573Z,18.45
2023-05-18T17:25:07.998Z,19.08
2023-05-18T17:27:34.961Z,18.98
2023-05-18T17:30:01.999Z,28.05
2023-05-18T17:32:28.986Z,19.12
2023-05-18T17:34:56.005Z,17.92
2023-05-18T17:37:22.918Z,20.25
2023-05-18T17:39:49.874Z,19.73
2023-05-18T17:42:16.933Z,19.15
2023-05-18T17:44:45.003Z,18.50
2023-05-18T17:47:13.680Z,23.12
2023-05-18T17:49:40.783Z,20.77
2023-05-18T17:52:07.716Z,26.33
2023-05-18T17:54:34.592Z,23.20
2023-05-18T17:57:01.899Z,20.35
2023-05-18T17:59:28.842Z,20.27
2023-05-18T18:01:55.774Z,23.70
2023-05-18T18:04:22.987Z,21.50
2023-05-18T18:06:50.158Z,21.30
2023-05-18T18:09:17.098Z,21.52
2023-05-18T18:11:43.986Z,20.60
2023-05-18T18:14:15.593Z,23.40
2023-05-18T18:16:42.544Z,21.50
2023-05-18T18:19:10.443Z,21.33
2023-05-18T18:21:37.433Z,30.05
2023-05-18T18:24:04.635Z,22.52
2023-05-18T18:26:32.372Z,20.37
2023-05-18T18:28:59.309Z,22.90
2023-05-18T18:31:26.255Z,22.08
2023-05-18T18:33:53.193Z,22.55
2023-05-18T18:36:20.095Z,23.62
2023-05-18T18:38:49.128Z,22.75
2023-05-18T18:41:17.517Z,20.27
2023-05-18T18:43:44.833Z,21.80
2023-05-18T18:46:12.207Z,21.80
2023-05-18T18:48:39.155Z,22.75
2023-05-18T18:51:06.088Z,22.65
2023-05-18T18:53:33.007Z,22.00
2023-05-18T18:56:00.003Z,26.37
2023-05-18T18:58:27.137Z,25.27
2023-05-18T19:00:54.227Z,25.50
2023-05-18T19:03:21.987Z,22.50
2023-05-18T19:05:49.545Z,24.40
2023-05-18T19:08:16.953Z,22.33
2023-05-18T19:10:44.950Z,20.62
2023-05-18T19:13:11.920Z,23.23
2023-05-18T19:15:39.245Z,21.55
2023-05-18T19:18:07.925Z,24.02
2023-05-18T19:20:35.035Z,25.27
2023-05-18T19:23:02.012Z,20.65
2023-05-18T19:25:30.061Z,25.05
2023-05-18T19:27:57.562Z,27.58
2023-05-18T19:30:24.783Z,23.80
2023-05-18T19:32:53.080Z,21.67
2023-05-18T19:35:21.853Z,22.92
2023-05-18T19:37:48.863Z,21.73
2023-05-18T19:40:16.434Z,24.40
2023-05-18T19:42:43.368Z,20.62
2023-05-18T19:45:10.316Z,24.00
2023-05-18T19:47:37.249Z,23.33
2023-05-18T19:50:04.774Z,22.15
2023-05-18T19:52:33.732Z,24.98
2023-05-18T19:55:00.756Z,24.05
2023-05-18T19:57:27.794Z,22.87
2023-05-18T20:00:01.602Z,23.77
2023-05-18T20:02:37.097Z,22.17
2023-05-18T20:05:06.227Z,23.23
2023-05-18T20:07:34.046Z,21.27
2023-05-18T20:10:01.942Z,24.05
2023-05-18T20:12:28.843Z,21.05
2023-05-18T20:14:56.409Z,23.30
2023-05-18T20:17:24.597Z,22.55
2023-05-18T20:19:53.615Z,22.83
2023-05-18T20:22:20.798Z,22.25
2023-05-18T20:24:49.057Z,22.65
2023-05-18T20:27:16.535Z,22.52
2023-05-18T20:29:44.437Z,20.08
2023-05-18T20:32:11.400Z,20.15
2023-05-18T20:34:38.336Z,21.80
2023-05-18T20:37:05.842Z,20.58
2023-05-18T20:39:33.053Z,16.90
2023-05-18T20:42:00.235Z,19.08
2023-05-18T20:44:28.816Z,18.95
2023-05-18T20:46:55.843Z,16.02
2023-05-18T20:49:25.077Z,21.67
2023-05-18T20:51:52.069Z,19.50
2023-05-18T20:54:19.186Z,16.80
2023-05-18T20:56:46.116Z,17.50
2023-05-18T20:59:13.107Z,18.35
2023-05-18T21:01:40.188Z,19.30
2023-05-18T21:04:07.737Z,16.25
2023-05-18T21:06:40.584Z,19.02
2023-05-18T21:09:08.219Z,15.60
2023-05-18T21:11:35.364Z,19.42
2023-05-18T21:14:02.280Z,20.15
2023-05-18T21:16:29.276Z,16.87
2023-05-18T21:18:56.436Z,15.32
2023-05-18T21:21:23.425Z,19.77
2023-05-18T21:23:50.448Z,18.25
2023-05-18T21:26:17.335Z,19.23
2023-05-18T21:28:44.222Z,17.48
2023-05-18T21:31:11.100Z,18.98
2023-05-18T21:33:38.259Z,14.00
2023-05-18T21:36:06.145Z,16.02
2023-05-18T21:38:33.083Z,17.37
2023-05-18T21:40:59.941Z,19.50
2023-05-18T21:43:26.862Z,18.67
2023-05-18T21:45:53.747Z,17.95
2023-05-18T21:48:21.687Z,18.50
2023-05-18T21:50:48.596Z,18.83
2023-05-18T21:53:15.613Z,19.12
2023-05-18T21:55:42.518Z,17.75
2023-05-18T21:58:09.671Z,13.85
2023-05-18T22:00:38.205Z,16.40
2023-05-18T22:03:05.235Z,18.33
2023-05-18T22:05:32.320Z,16.35
2023-05-18T22:07:59.377Z,15.90
2023-05-18T22:10:26.317Z,14.80
2023-05-18T22:12:53.315Z,18.12
2023-05-18T22:15:22.524Z,17.77
2023-05-18T22:17:49.827Z,16.15
2023-05-18T22:20:17.359Z,16.52
2023-05-18T22:22:44.619Z,15.95
2023-05-18T22:25:13.444Z,18.48
2023-05-18T22:27:40.411Z,16.62
2023-05-18T22:30:09.904Z,14.23
2023-05-18T22:32:37.028Z,17.92
2023-05-18T22:35:04.429Z,18.55
2023-05-18T22:37:31.400Z,15.85
2023-05-18T22:39:58.325Z,15.18
2023-05-18T22:42:25.290Z,14.43
2023-05-18T22:44:52.248Z,16.30
2023-05-18T22:47:21.653Z,17.75
2023-05-18T22:49:51.527Z,14.52
2023-05-18T22:52:18.667Z,14.38
2023-05-18T22:54:46.155Z,16.15
2023-05-18T22:57:13.571Z,14.00
2023-05-18T22:59:40.512Z,15.95
2023-05-18T23:02:07.507Z,15.18
2023-05-18T23:04:35.300Z,14.73
2023-05-18T23:07:04.324Z,15.65
2023-05-18T23:09:31.479Z,17.17
2023-05-18T23:11:59.798Z,18.02
2023-05-18T23:14:32.648Z,16.83
2023-05-18T23:17:03.826Z,16.25
2023-05-18T23:19:36.545Z,15.73
2023-05-18T23:22:04.051Z,15.18
2023-05-18T23:24:31.213Z,13.18
2023-05-18T23:26:58.462Z,15.85
2023-05-18T23:29:25.790Z,13.73
2023-05-18T23:31:52.734Z,16.75
2023-05-18T23:34:20.050Z,14.77
2023-05-18T23:36:48.834Z,15.90
2023-05-18T23:39:26.691Z,14.05
2023-05-18T23:41:54.292Z,14.60
2023-05-18T23:44:21.538Z,15.77
2023-05-18T23:46:48.811Z,18.23
2023-05-18T23:49:15.838Z,15.25
2023-05-18T23:51:43.390Z,16.98
2023-05-18T23:54:10.723Z,12.95
2023-05-18T23:56:37.872Z,15.68
2023-05-18T23:59:04.945Z,18.12
